Portada
METAR-TAF:

METAR-TAF

Aeroports :

Aeroport de Sabadell

Sabadell, Espanya

latitud: 41-31N, longitud: 002-06E, altitud: 250 m

Observació

L'informe es va fer fa 6 hores i 40 minuts, a les 05:00 UTC
Vent 4 kt del Oest/Nord-Oest
Temperatura 20°C
Humitat 83%
Pressió 1017 hPa
Visibilitat 10 km o més

METAR: LELL 210500Z AUTO 29004KT 9999 NCD 20/17 Q1017

Hora: 13:40 (11:40 UTC)

Pronòstic

L'informe es va fer fa 9 hores i 40 minuts, a les 02:00 UTC
Pronòstic vàlid del 21 a les 03 UTC al 22 a les 03 UTC
Vent 4 kt amb direcció variable
Visibilitat 10 km o més
Escasses núvols a una alçada de 4000 ft
Evolucionant progressivament
l' 21 a les 08 UTC al 21 a les 11 UTC
Vent 10 kt del Sud
Evolucionant progressivament
l' 21 a les 18 UTC al 21 a les 21 UTC
Vent 3 kt amb direcció variable

TAF: LELL 210200Z 2103/2203 VRB04KT 9999 FEW040 TX35/2113Z TN20/2105Z BECMG 2108/2111 17010KT BECMG 2118/2121 VRB03KT

Observacions i pronòstics meteorològics de més de 4000 aeroports (METAR i TAF).

Les estacions disponibles són els punts grocs i vermells al mapa.

Posi el ratolí al punt desitjat per veure el nom de l'estació.

Feu clic per veure les observacions i els pronòstics meteorològics.

Per canviar el mapa: feu clic els botons verds amb una creu de color negre per apropar; al botó verd amb un guió per allunyar la imatge; o en les fletxes verdes per a mapes adjacents.


METAR-TAF: